HEPS

Port Said Airport

Port Said, Egypt
METAR HEPS 180200Z 32009KT CAVOK 27/22 Q1008 NOSIG
Observed Flight Rules
Aug-18 @ 02:00 UTC (29 minutes ago) Visual Flight Rules
Wind Visibility Clouds
320° at 9 knots 10,000+ meters
  • Clear skies
Temperatures Readings
Current 27°C / 81°F
Dewpoint 22°C / 72°F
Humidity 74%
Altimeter 29.76" Hg
Pressure 1008 hPa
Elevation 6
METAR HEPS 180200Z 32009KT CAVOK 27/22 Q1008 NOSIG
Observed Flight Rules
Aug-18 @ 02:00 UTC
(29 minutes ago)
VFR
Wind Visibility
320° at 9 knots 10,000+ meters
Clouds
  • Clear skies
Temperature Dewpoint
27°C / 81°F 22°C / 72°F
Humidity Altimeter Pressure
74% 29.76" Hg 1008 hPa